Perth, North Dakota
Current Conditions -  °F | °C
As of 10:15 PM on Wednesday 22 Oct 2014 (Local Time) from K06D Reporting Station
Scattered Clouds Scattered Clouds  
Wind Chill: 52°   Ceiling: Unl
Heat Index: 52°   Visibility: 10mi
Dew Point: 45°   Wind: 12mph
Humidity: 76%   Direction: 250°WSW
Pressure: 29.8"   Gusts: 18mph
Location:  48.72°N, 99.46°W
Report Text: K06D 230315Z AUTO 25010G16KT 10SM FEW042 SCT050 11/07 A2980 RMK AO2
Loading
Personal Weather Stations






























Interactive Weather Map
Tropical Storm Tracking
New forecast layout! Learn more

10-Day Weather Forecast

Advertisements
Track Severe Weather on mobile